Time;durP1;ratioP1;P1;durP2;ratioP2;P2;SDS_P1;SDS_P2;PMS_P1;PMS_P2;Temp;Humidity;BMP_temperature;BMP_pressure;BME280_temperature;BME280_humidity;BME280_pressure;Samples;Min_cycle;Max_cycle;Signal;HPM_P1;HPM_P2
2020/12/31 00:01:54;;;;;;;6.88;3.25;;;3.00;99.90;;;;;;4993018;28;20390;-82
2020/12/31 00:04:19;;;;;;;7.03;3.40;;;3.00;99.90;;;;;;4978789;28;20037;-83
2020/12/31 00:06:45;;;;;;;12.43;3.40;;;3.10;99.90;;;;;;4980416;28;20045;-83
2020/12/31 00:09:11;;;;;;;7.68;3.50;;;3.00;99.90;;;;;;4978853;28;20046;-82
2020/12/31 00:11:36;;;;;;;5.57;2.95;;;3.10;99.90;;;;;;5007128;28;20053;-84
2020/12/31 00:14:07;;;;;;;6.18;3.17;;;3.00;99.90;;;;;;4974212;28;20043;-83
2020/12/31 00:16:36;;;;;;;5.55;3.08;;;3.00;99.90;;;;;;4977424;28;20042;-83
2020/12/31 00:19:03;;;;;;;6.45;3.28;;;3.00;99.90;;;;;;4978010;28;20058;-83
2020/12/31 00:21:29;;;;;;;8.52;3.17;;;3.10;99.90;;;;;;4979705;28;20108;-83
2020/12/31 00:23:54;;;;;;;6.07;3.33;;;3.00;99.90;;;;;;4985780;28;20717;-83
2020/12/31 00:26:20;;;;;;;7.75;3.80;;;3.00;99.90;;;;;;4981220;28;20037;-83
2020/12/31 00:28:46;;;;;;;10.15;3.65;;;3.00;99.90;;;;;;4979807;28;20038;-83
2020/12/31 00:31:11;;;;;;;7.50;4.07;;;3.00;99.90;;;;;;4979898;28;20038;-83
2020/12/31 00:33:37;;;;;;;11.90;4.47;;;3.00;99.90;;;;;;4977862;28;20177;-82
2020/12/31 00:36:03;;;;;;;7.38;4.38;;;3.10;99.90;;;;;;4993888;28;20037;-84
2020/12/31 00:38:29;;;;;;;9.43;4.07;;;3.10;99.90;;;;;;5004276;28;20056;-83
2020/12/31 00:40:54;;;;;;;7.82;4.22;;;3.10;99.90;;;;;;5001805;28;20510;-84
2020/12/31 00:43:20;;;;;;;10.80;4.60;;;3.10;99.90;;;;;;5031322;28;20077;-83
2020/12/31 00:45:47;;;;;;;6.75;3.53;;;3.20;99.90;;;;;;5013337;28;20033;-83
2020/12/31 00:48:12;;;;;;;5.40;3.40;;;3.20;99.90;;;;;;4996733;28;20105;-83
2020/12/31 00:50:38;;;;;;;5.28;3.10;;;3.20;99.90;;;;;;4995710;28;20234;-82
2020/12/31 00:53:03;;;;;;;5.65;3.25;;;3.20;99.90;;;;;;4990690;28;20121;-84
2020/12/31 00:55:29;;;;;;;6.82;3.90;;;3.20;99.90;;;;;;4993187;28;20101;-83
2020/12/31 00:57:54;;;;;;;9.75;3.33;;;3.20;99.90;;;;;;4996750;28;20038;-83
2020/12/31 01:00:20;;;;;;;5.20;3.00;;;3.20;99.90;;;;;;4994169;28;20043;-82
2020/12/31 01:02:46;;;;;;;6.28;3.67;;;3.10;99.90;;;;;;5007732;28;20038;-82
2020/12/31 01:05:12;;;;;;;6.93;3.25;;;3.10;99.90;;;;;;4989815;28;20061;-82
2020/12/31 01:07:38;;;;;;;10.57;3.55;;;3.10;99.90;;;;;;4989836;28;20038;-82
2020/12/31 01:10:06;;;;;;;4.90;2.55;;;3.10;99.90;;;;;;4981875;28;20075;-83
2020/12/31 01:12:31;;;;;;;6.75;3.28;;;3.00;99.90;;;;;;4981523;28;20110;-84
2020/12/31 01:14:57;;;;;;;5.53;3.25;;;3.00;99.90;;;;;;4981526;28;20045;-83
2020/12/31 01:17:26;;;;;;;5.18;3.15;;;3.00;99.90;;;;;;4980821;28;20615;-84
2020/12/31 01:19:52;;;;;;;6.95;2.97;;;2.90;99.90;;;;;;4981422;28;20052;-82
2020/12/31 01:22:18;;;;;;;5.75;3.33;;;2.90;99.90;;;;;;4981793;28;20037;-83
2020/12/31 01:24:43;;;;;;;9.35;3.22;;;2.80;99.90;;;;;;4981553;28;20727;-83
2020/12/31 01:27:09;;;;;;;5.15;2.88;;;2.80;99.90;;;;;;4984358;28;20034;-85
2020/12/31 01:29:34;;;;;;;8.20;3.42;;;2.70;99.90;;;;;;4981351;28;20069;-82
2020/12/31 01:32:00;;;;;;;5.88;3.17;;;2.70;99.90;;;;;;4983028;28;20050;-83
2020/12/31 01:34:26;;;;;;;6.85;3.25;;;2.70;99.90;;;;;;4982064;28;20038;-82
2020/12/31 01:36:53;;;;;;;4.03;2.55;;;2.60;99.90;;;;;;4986441;28;20729;-83
2020/12/31 01:39:18;;;;;;;5.63;3.00;;;2.60;99.90;;;;;;4976897;28;20137;-83
2020/12/31 01:41:44;;;;;;;6.18;3.05;;;2.60;99.90;;;;;;4976934;28;20522;-85
2020/12/31 01:44:11;;;;;;;7.53;3.20;;;2.60;99.90;;;;;;4981603;28;20038;-83
2020/12/31 01:46:39;;;;;;;4.53;2.78;;;2.50;99.90;;;;;;4973878;28;20079;-84
2020/12/31 01:49:07;;;;;;;5.40;3.10;;;2.50;99.90;;;;;;4981005;28;20042;-83
2020/12/31 01:51:35;;;;;;;8.60;2.72;;;2.50;99.90;;;;;;4972803;28;20581;-83
2020/12/31 01:54:01;;;;;;;6.32;3.22;;;2.50;99.90;;;;;;4978642;28;20045;-83
2020/12/31 01:56:29;;;;;;;5.65;3.10;;;2.50;99.90;;;;;;4973440;28;20031;-85
2020/12/31 01:58:56;;;;;;;7.53;3.33;;;2.50;99.90;;;;;;4981920;28;20034;-84
2020/12/31 02:01:22;;;;;;;6.95;3.47;;;2.50;99.90;;;;;;4987337;28;20039;-84
2020/12/31 02:03:52;;;;;;;8.07;3.58;;;2.40;99.90;;;;;;4991525;28;20074;-83
2020/12/31 02:06:20;;;;;;;11.35;3.47;;;2.40;99.90;;;;;;4986853;28;20046;-85
2020/12/31 02:08:46;;;;;;;7.57;3.60;;;2.40;99.90;;;;;;4980211;28;20076;-85
2020/12/31 02:11:14;;;;;;;7.22;3.20;;;2.40;99.90;;;;;;4980580;28;20069;-84
2020/12/31 02:13:43;;;;;;;7.47;3.50;;;2.40;99.90;;;;;;4979841;28;21018;-85
2020/12/31 02:16:13;;;;;;;8.52;4.32;;;2.40;99.90;;;;;;4978789;28;20049;-83
2020/12/31 02:18:57;;;;;;;11.48;4.80;;;2.40;99.90;;;;;;4978206;28;20067;-84
2020/12/31 02:21:34;;;;;;;6.63;3.67;;;2.40;99.90;;;;;;4977739;28;20089;-84
2020/12/31 02:24:01;;;;;;;8.30;4.18;;;2.40;99.90;;;;;;4977949;28;20038;-84
2020/12/31 02:26:29;;;;;;;5.30;3.08;;;2.30;99.90;;;;;;4973921;28;20524;-83
2020/12/31 02:28:56;;;;;;;5.28;3.35;;;2.30;99.90;;;;;;4975758;28;20137;-83
2020/12/31 02:31:23;;;;;;;6.68;3.90;;;2.30;99.90;;;;;;4972754;28;20042;-83
2020/12/31 02:33:51;;;;;;;7.40;3.80;;;2.30;99.90;;;;;;4974066;28;20420;-83
2020/12/31 02:36:18;;;;;;;6.90;3.70;;;2.20;99.90;;;;;;4976182;28;20031;-83
2020/12/31 02:38:44;;;;;;;7.88;4.05;;;2.20;99.90;;;;;;4981638;28;20031;-83
2020/12/31 02:41:11;;;;;;;7.03;3.45;;;2.20;99.90;;;;;;5003952;28;20035;-82
2020/12/31 02:43:37;;;;;;;8.73;3.88;;;2.20;99.90;;;;;;4994820;28;20070;-83
2020/12/31 02:46:06;;;;;;;9.40;4.22;;;2.20;99.90;;;;;;4988383;28;20054;-84
2020/12/31 02:48:33;;;;;;;7.43;3.90;;;2.20;99.90;;;;;;4983276;28;20050;-85
2020/12/31 02:50:58;;;;;;;11.55;4.22;;;2.10;99.90;;;;;;4974364;28;20098;-84
2020/12/31 02:53:24;;;;;;;8.75;3.97;;;2.20;99.90;;;;;;4976744;28;20127;-84
2020/12/31 02:55:49;;;;;;;9.30;4.43;;;2.30;99.90;;;;;;4985590;28;20034;-83
2020/12/31 02:58:15;;;;;;;11.65;4.60;;;2.30;99.90;;;;;;4988877;28;20010;-82
2020/12/31 03:00:41;;;;;;;8.20;4.30;;;2.30;99.90;;;;;;4991544;28;20593;-85
2020/12/31 03:03:06;;;;;;;11.48;4.38;;;2.30;99.90;;;;;;4986803;28;20041;-84
2020/12/31 03:05:32;;;;;;;6.32;3.83;;;2.30;99.90;;;;;;4986302;28;20039;-83
2020/12/31 03:07:57;;;;;;;9.15;4.30;;;2.20;99.90;;;;;;4991399;28;20042;-84
2020/12/31 03:10:23;;;;;;;6.55;4.05;;;2.20;99.90;;;;;;4982172;28;20125;-84
2020/12/31 03:12:48;;;;;;;8.80;3.70;;;2.10;99.90;;;;;;4982201;28;20626;-85
2020/12/31 03:15:18;;;;;;;10.13;3.90;;;2.00;99.90;;;;;;4978657;28;20071;-84
2020/12/31 03:17:43;;;;;;;8.10;3.42;;;1.90;99.90;;;;;;4981339;28;20038;-84
2020/12/31 03:20:09;;;;;;;6.50;3.92;;;1.80;99.90;;;;;;4975564;28;20038;-85
2020/12/31 03:22:35;;;;;;;9.57;4.75;;;1.70;99.90;;;;;;4982792;28;20039;-84
2020/12/31 03:25:01;;;;;;;7.50;3.80;;;1.70;99.90;;;;;;5008489;28;20050;-84
2020/12/31 03:27:27;;;;;;;8.98;4.03;;;1.60;99.90;;;;;;4973838;28;20038;-84
2020/12/31 03:29:52;;;;;;;10.02;4.22;;;1.60;99.90;;;;;;4979208;28;20038;-84
2020/12/31 03:32:19;;;;;;;10.70;4.07;;;1.60;99.90;;;;;;4978573;28;20031;-84
2020/12/31 03:34:45;;;;;;;6.32;3.30;;;1.50;99.90;;;;;;4981448;28;20549;-84
2020/12/31 03:37:10;;;;;;;8.00;3.95;;;1.40;99.90;;;;;;4988402;28;20041;-84
2020/12/31 03:39:36;;;;;;;6.72;3.40;;;1.30;99.90;;;;;;4981081;28;20034;-84
2020/12/31 03:42:02;;;;;;;10.35;4.25;;;1.30;99.90;;;;;;4985168;28;20604;-84
2020/12/31 03:44:27;;;;;;;8.05;3.70;;;1.30;99.90;;;;;;4979035;28;20112;-84
2020/12/31 03:46:53;;;;;;;6.43;3.75;;;1.20;99.90;;;;;;4976783;28;20579;-82
2020/12/31 03:49:19;;;;;;;8.45;3.90;;;1.20;99.90;;;;;;4979333;28;20042;-81
2020/12/31 03:51:45;;;;;;;7.45;3.63;;;1.10;99.90;;;;;;4982888;28;20764;-84
2020/12/31 03:54:10;;;;;;;11.55;4.32;;;1.20;99.90;;;;;;4976923;28;20045;-84
2020/12/31 03:56:36;;;;;;;9.15;4.25;;;1.10;99.90;;;;;;4981064;28;20375;-83
2020/12/31 03:59:03;;;;;;;8.80;4.32;;;1.10;99.90;;;;;;4980498;28;20035;-84
2020/12/31 04:01:29;;;;;;;7.85;4.32;;;1.10;99.90;;;;;;4981160;28;20066;-84
2020/12/31 04:03:55;;;;;;;7.07;3.90;;;1.10;99.90;;;;;;4981007;28;20116;-84
2020/12/31 04:06:20;;;;;;;10.52;4.20;;;1.10;99.90;;;;;;4980835;28;20038;-83
2020/12/31 04:08:46;;;;;;;10.55;5.00;;;1.00;99.90;;;;;;4982057;28;20069;-84
2020/12/31 04:11:11;;;;;;;8.57;4.60;;;1.00;99.90;;;;;;4980053;28;20048;-82
2020/12/31 04:13:37;;;;;;;9.93;4.40;;;1.00;99.90;;;;;;4980511;28;20042;-82
2020/12/31 04:16:03;;;;;;;9.48;4.05;;;1.10;99.90;;;;;;4995995;28;20647;-82
2020/12/31 04:18:28;;;;;;;9.40;4.30;;;1.00;99.90;;;;;;5003756;28;20058;-83
2020/12/31 04:20:54;;;;;;;10.10;4.40;;;0.90;99.90;;;;;;5001907;28;20502;-82
2020/12/31 04:23:19;;;;;;;8.48;4.40;;;0.90;99.90;;;;;;4988784;28;20034;-81
2020/12/31 04:25:45;;;;;;;8.43;4.63;;;0.90;99.90;;;;;;4997356;28;20034;-83
2020/12/31 04:28:10;;;;;;;7.60;4.05;;;0.90;99.90;;;;;;4999088;28;20430;-85
2020/12/31 04:30:36;;;;;;;8.70;4.47;;;0.80;99.90;;;;;;4981291;28;20669;-85
2020/12/31 04:33:01;;;;;;;8.15;4.13;;;0.80;99.90;;;;;;4980799;28;20034;-83
2020/12/31 04:35:27;;;;;;;7.65;3.88;;;0.80;99.90;;;;;;4979237;28;20077;-84
2020/12/31 04:37:52;;;;;;;7.28;4.07;;;0.80;99.90;;;;;;4977783;28;20035;-84
2020/12/31 04:40:18;;;;;;;7.65;4.10;;;0.70;99.90;;;;;;4982903;28;20054;-84
2020/12/31 04:42:43;;;;;;;9.43;3.65;;;0.70;99.90;;;;;;4980707;28;20035;-84
2020/12/31 04:45:10;;;;;;;7.70;4.15;;;0.70;99.90;;;;;;4983120;28;20073;-84
2020/12/31 04:47:47;;;;;;;8.70;4.78;;;0.60;99.90;;;;;;4980974;28;20035;-84
2020/12/31 04:50:14;;;;;;;11.35;4.40;;;0.60;99.90;;;;;;4982647;28;20045;-84
2020/12/31 04:52:40;;;;;;;9.45;4.85;;;0.50;99.90;;;;;;4978347;28;20030;-84
2020/12/31 04:55:05;;;;;;;10.57;4.65;;;0.50;99.90;;;;;;4981675;28;20039;-84
2020/12/31 04:57:32;;;;;;;11.98;4.65;;;0.50;99.90;;;;;;4978742;28;20042;-84
2020/12/31 04:59:58;;;;;;;10.90;5.07;;;0.40;99.90;;;;;;4978490;28;20038;-83
2020/12/31 05:02:25;;;;;;;9.10;4.78;;;0.40;99.90;;;;;;4980449;28;20022;-82
2020/12/31 05:04:52;;;;;;;10.55;4.97;;;0.40;99.90;;;;;;4983305;28;20098;-82
2020/12/31 05:07:19;;;;;;;8.05;4.68;;;0.40;99.90;;;;;;4996161;28;20053;-82
2020/12/31 05:09:44;;;;;;;9.35;4.30;;;0.30;99.90;;;;;;4995407;28;20034;-82
2020/12/31 05:12:10;;;;;;;9.32;4.30;;;0.40;99.90;;;;;;4985883;28;20057;-84
2020/12/31 05:14:37;;;;;;;10.57;3.97;;;0.30;99.90;;;;;;4980766;28;20034;-82
2020/12/31 05:17:19;;;;;;;12.68;4.45;;;0.50;99.90;;;;;;4974469;28;20042;-83
2020/12/31 05:19:45;;;;;;;10.70;4.22;;;0.30;99.90;;;;;;4974683;28;20061;-83
2020/12/31 05:22:12;;;;;;;8.27;3.25;;;0.30;99.90;;;;;;4974673;28;20049;-83
2020/12/31 05:24:39;;;;;;;7.32;3.17;;;0.40;99.90;;;;;;4970593;28;20038;-82
2020/12/31 05:27:25;;;;;;;6.57;3.72;;;0.30;99.90;;;;;;4980748;28;20045;-83
2020/12/31 05:29:53;;;;;;;6.05;2.92;;;0.30;99.90;;;;;;4977106;28;20050;-83
2020/12/31 05:32:23;;;;;;;6.35;3.13;;;0.30;99.90;;;;;;4976996;28;20035;-83
2020/12/31 05:34:49;;;;;;;5.38;2.60;;;0.20;99.90;;;;;;4974203;28;20065;-83
2020/12/31 05:37:16;;;;;;;6.70;3.45;;;0.20;99.90;;;;;;4975875;28;20631;-83
2020/12/31 05:40:08;;;;;;;6.10;2.75;;;0.30;99.90;;;;;;4974901;28;20069;-83
2020/12/31 05:42:35;;;;;;;8.85;3.20;;;0.30;99.90;;;;;;4979912;28;20035;-83
2020/12/31 05:45:28;;;;;;;6.60;2.97;;;0.30;99.90;;;;;;4984112;28;20541;-83
2020/12/31 05:47:54;;;;;;;6.85;3.10;;;0.30;99.90;;;;;;4976568;28;20042;-83
2020/12/31 05:50:30;;;;;;;7.10;3.25;;;0.30;99.90;;;;;;4972147;28;20026;-83
2020/12/31 05:52:55;;;;;;;6.00;2.50;;;0.30;99.90;;;;;;4981134;28;20061;-83
2020/12/31 05:55:23;;;;;;;6.90;3.20;;;0.30;99.90;;;;;;4982103;28;20098;-82
2020/12/31 05:57:54;;;;;;;5.47;3.28;;;0.40;99.90;;;;;;4971219;28;20586;-83
2020/12/31 06:00:20;;;;;;;6.80;3.20;;;0.40;99.90;;;;;;4973081;28;20034;-83
2020/12/31 06:02:51;;;;;;;6.38;2.95;;;0.40;99.90;;;;;;4978074;28;20090;-83
2020/12/31 06:05:18;;;;;;;5.93;3.10;;;0.40;99.90;;;;;;4977081;28;20066;-82
2020/12/31 06:07:57;;;;;;;7.25;3.00;;;0.40;99.90;;;;;;5011369;28;20042;-82
2020/12/31 06:10:27;;;;;;;7.82;3.13;;;0.40;99.90;;;;;;4975576;28;20106;-83
2020/12/31 06:12:54;;;;;;;5.60;2.72;;;0.40;99.90;;;;;;4991094;28;20031;-83
2020/12/31 06:15:25;;;;;;;8.10;3.38;;;0.40;99.90;;;;;;4977358;28;20032;-83
2020/12/31 06:17:51;;;;;;;8.68;3.22;;;0.40;99.90;;;;;;4973586;28;20090;-83
2020/12/31 06:20:19;;;;;;;5.47;3.03;;;0.40;99.90;;;;;;4978674;28;20045;-82
2020/12/31 06:23:00;;;;;;;5.75;3.20;;;0.50;99.90;;;;;;4982289;28;20035;-83
2020/12/31 06:25:37;;;;;;;4.88;2.85;;;0.50;99.90;;;;;;4988677;28;20058;-82
2020/12/31 06:28:17;;;;;;;6.13;3.45;;;0.40;99.90;;;;;;4987665;28;20062;-83
2020/12/31 06:30:50;;;;;;;6.03;3.33;;;0.50;99.90;;;;;;4995036;28;20037;-82
2020/12/31 06:33:41;;;;;;;6.28;3.15;;;0.50;99.90;;;;;;4981308;28;20031;-81
2020/12/31 06:36:09;;;;;;;7.18;3.60;;;0.60;99.90;;;;;;4978734;28;20636;-83
2020/12/31 06:38:52;;;;;;;6.22;3.20;;;0.50;99.90;;;;;;4977011;28;20085;-82
2020/12/31 06:41:30;;;;;;;6.57;3.20;;;0.60;99.90;;;;;;4978727;28;20027;-83
2020/12/31 06:44:13;;;;;;;5.82;2.53;;;0.60;99.90;;;;;;4993369;28;20066;-84
2020/12/31 06:46:49;;;;;;;8.35;3.25;;;0.60;99.90;;;;;;4977540;28;20034;-82
2020/12/31 06:49:15;;;;;;;7.18;3.40;;;0.60;99.90;;;;;;4981124;28;20042;-83
2020/12/31 06:51:42;;;;;;;7.28;3.75;;;0.60;99.90;;;;;;4979480;28;20038;-83
2020/12/31 06:54:07;;;;;;;11.00;3.95;;;0.60;99.90;;;;;;4975112;28;20069;-83
2020/12/31 06:56:50;;;;;;;9.90;4.03;;;0.80;99.90;;;;;;4980328;28;20050;-83
2020/12/31 06:59:32;;;;;;;10.00;3.55;;;0.70;99.90;;;;;;4978013;28;20051;-83
2020/12/31 07:02:00;;;;;;;9.13;3.80;;;0.80;99.90;;;;;;4983478;28;20282;-82
2020/12/31 07:04:36;;;;;;;7.15;4.05;;;0.90;99.90;;;;;;4984142;28;20038;-83
2020/12/31 07:07:25;;;;;;;5.97;3.47;;;0.90;99.90;;;;;;4987244;28;20514;-83
2020/12/31 07:09:56;;;;;;;8.27;3.90;;;0.90;99.90;;;;;;4983065;28;20456;-83
2020/12/31 07:12:35;;;;;;;9.50;4.97;;;1.00;99.90;;;;;;4985426;28;20273;-83
2020/12/31 07:15:02;;;;;;;8.50;4.28;;;1.00;99.90;;;;;;4983664;28;20065;-83
2020/12/31 07:17:38;;;;;;;10.10;4.07;;;1.00;99.90;;;;;;4984656;28;20106;-84
2020/12/31 07:20:15;;;;;;;9.05;4.50;;;1.10;99.90;;;;;;4985603;28;20034;-83
2020/12/31 07:22:42;;;;;;;8.98;4.47;;;1.10;99.90;;;;;;4985038;28;20042;-81
2020/12/31 07:25:17;;;;;;;9.82;4.55;;;1.10;99.90;;;;;;4984363;28;20035;-83
2020/12/31 07:27:44;;;;;;;10.35;4.38;;;1.20;99.90;;;;;;4981578;28;20070;-83
2020/12/31 07:30:12;;;;;;;9.68;5.22;;;1.30;99.90;;;;;;4981833;28;20065;-83
2020/12/31 07:32:58;;;;;;;7.22;3.92;;;1.30;99.90;;;;;;4984671;28;20027;-84
2020/12/31 07:35:29;;;;;;;7.45;4.43;;;1.30;99.90;;;;;;4982649;28;20039;-84
2020/12/31 07:38:12;;;;;;;10.27;4.43;;;1.40;99.90;;;;;;5016234;28;20070;-82
2020/12/31 07:40:44;;;;;;;10.80;5.07;;;1.40;99.90;;;;;;4986264;28;20039;-82
2020/12/31 07:43:16;;;;;;;7.53;4.32;;;1.50;99.90;;;;;;4980816;28;20047;-82
2020/12/31 07:45:50;;;;;;;8.45;4.80;;;1.50;99.90;;;;;;4999648;28;20065;-83
2020/12/31 07:48:17;;;;;;;8.52;4.82;;;1.60;99.90;;;;;;4982324;28;20100;-84
2020/12/31 07:50:43;;;;;;;10.98;4.93;;;1.70;99.90;;;;;;4979212;28;20039;-82
2020/12/31 07:53:13;;;;;;;10.57;5.15;;;1.70;99.90;;;;;;4982933;28;20521;-82
2020/12/31 07:55:50;;;;;;;11.35;4.68;;;1.80;99.90;;;;;;5016146;28;20030;-83
2020/12/31 07:58:20;;;;;;;11.85;5.32;;;1.90;99.90;;;;;;5032274;28;20125;-83
2020/12/31 08:00:57;;;;;;;9.35;5.45;;;1.90;99.90;;;;;;5006754;28;20041;-82
2020/12/31 08:03:23;;;;;;;7.18;4.38;;;2.00;99.90;;;;;;5000790;28;20080;-84
2020/12/31 08:05:55;;;;;;;8.77;5.03;;;2.10;99.90;;;;;;4997225;28;20114;-83
2020/12/31 08:08:21;;;;;;;10.30;5.35;;;2.10;99.90;;;;;;5002955;28;20035;-82
2020/12/31 08:10:47;;;;;;;18.30;5.70;;;2.20;99.90;;;;;;5029142;28;20085;-83
2020/12/31 08:13:15;;;;;;;10.23;5.05;;;2.30;99.90;;;;;;4994185;28;20050;-84
2020/12/31 08:15:41;;;;;;;12.18;5.78;;;2.30;99.90;;;;;;4987732;28;20030;-84
2020/12/31 08:18:07;;;;;;;11.68;5.03;;;2.40;99.90;;;;;;4988469;28;20038;-84
2020/12/31 08:20:37;;;;;;;11.27;5.00;;;2.40;99.90;;;;;;4981283;28;20062;-84
2020/12/31 08:23:04;;;;;;;10.18;5.22;;;2.40;99.90;;;;;;4987175;28;20042;-84
2020/12/31 08:25:36;;;;;;;11.50;5.10;;;2.40;99.90;;;;;;5002763;28;20111;-84
2020/12/31 08:28:07;;;;;;;10.25;5.22;;;2.50;99.90;;;;;;4989173;28;20034;-83
2020/12/31 08:30:34;;;;;;;9.50;4.82;;;2.50;99.90;;;;;;4990903;28;20030;-84
2020/12/31 08:33:00;;;;;;;9.00;5.13;;;2.50;99.90;;;;;;4996299;28;20035;-83
2020/12/31 08:35:28;;;;;;;10.27;5.22;;;2.50;99.90;;;;;;4986567;28;20034;-84
2020/12/31 08:38:00;;;;;;;12.10;5.55;;;2.60;99.90;;;;;;4995291;28;20038;-84
2020/12/31 08:40:25;;;;;;;10.18;5.43;;;2.50;99.90;;;;;;4986514;28;20045;-82
2020/12/31 08:42:53;;;;;;;10.70;6.05;;;2.60;99.90;;;;;;4992512;28;20034;-81
2020/12/31 08:45:32;;;;;;;10.60;5.43;;;2.70;99.90;;;;;;4998375;28;20085;-82
2020/12/31 08:48:21;;;;;;;8.80;5.10;;;2.70;99.90;;;;;;4997286;28;20034;-81
2020/12/31 08:51:09;;;;;;;10.98;5.40;;;2.80;99.90;;;;;;4995294;28;20033;-82
2020/12/31 08:53:59;;;;;;;13.00;6.07;;;2.90;99.90;;;;;;4992284;28;20074;-81
2020/12/31 08:56:26;;;;;;;9.95;5.63;;;2.90;99.90;;;;;;4997480;28;20122;-81
2020/12/31 08:59:05;;;;;;;14.55;6.60;;;2.90;99.90;;;;;;4989713;28;20042;-81
2020/12/31 09:01:30;;;;;;;10.55;5.43;;;2.90;99.90;;;;;;4993970;28;22257;-81
2020/12/31 09:04:19;;;;;;;11.52;6.05;;;2.90;99.90;;;;;;4992077;28;20031;-82
2020/12/31 09:06:49;;;;;;;10.02;5.38;;;2.90;99.90;;;;;;4993626;28;20031;-82
2020/12/31 09:09:15;;;;;;;10.15;5.07;;;2.90;99.90;;;;;;4990554;28;20053;-81
2020/12/31 09:11:52;;;;;;;9.57;5.78;;;3.00;99.90;;;;;;4999624;28;20046;-82
2020/12/31 09:14:18;;;;;;;10.90;6.28;;;3.00;99.90;;;;;;4991330;28;20039;-81
2020/12/31 09:16:44;;;;;;;10.30;6.03;;;3.00;99.90;;;;;;4990368;28;20034;-80
2020/12/31 09:19:09;;;;;;;11.93;5.43;;;3.00;99.90;;;;;;4999021;28;20510;-83
2020/12/31 09:21:35;;;;;;;11.32;6.22;;;2.90;99.90;;;;;;4995279;28;20050;-83
2020/12/31 09:24:14;;;;;;;12.77;6.25;;;2.90;99.80;;;;;;4997980;28;20527;-82
2020/12/31 09:26:49;;;;;;;12.73;5.57;;;3.00;99.90;;;;;;4991934;28;20031;-83
2020/12/31 09:29:15;;;;;;;11.05;6.30;;;3.00;99.70;;;;;;5021420;28;20122;-83
2020/12/31 09:31:40;;;;;;;12.27;6.25;;;3.10;99.80;;;;;;4979551;28;20522;-83
2020/12/31 09:34:06;;;;;;;10.32;6.40;;;3.10;99.50;;;;;;4987121;28;20569;-82
2020/12/31 09:36:31;;;;;;;11.65;6.35;;;3.20;99.90;;;;;;4979487;28;20122;-83
2020/12/31 09:38:57;;;;;;;9.63;5.65;;;3.20;99.90;;;;;;4980552;28;20066;-83
2020/12/31 09:41:23;;;;;;;12.50;6.22;;;3.20;99.90;;;;;;4979250;28;20062;-83
2020/12/31 09:43:50;;;;;;;14.13;6.10;;;3.30;99.90;;;;;;4976254;28;20038;-81
2020/12/31 09:46:20;;;;;;;13.50;5.80;;;3.40;99.90;;;;;;4975343;28;20130;-81
2020/12/31 09:48:47;;;;;;;9.23;5.38;;;3.40;99.70;;;;;;4980966;28;20077;-84
2020/12/31 09:51:13;;;;;;;11.68;6.07;;;3.40;98.10;;;;;;4980598;28;20050;-83
2020/12/31 09:53:39;;;;;;;13.77;6.22;;;3.50;97.60;;;;;;4982707;28;20034;-84
2020/12/31 09:56:04;;;;;;;9.20;5.35;;;3.50;98.00;;;;;;4982320;28;20045;-83
2020/12/31 09:58:30;;;;;;;13.38;6.78;;;3.50;97.50;;;;;;4989414;28;20114;-82
2020/12/31 10:00:55;;;;;;;9.55;6.13;;;3.50;97.80;;;;;;5008771;28;20034;-81
2020/12/31 10:03:21;;;;;;;14.80;5.80;;;3.60;97.20;;;;;;4984569;28;20842;-82
2020/12/31 10:05:46;;;;;;;11.05;5.38;;;3.50;96.50;;;;;;4980045;28;20417;-82
2020/12/31 10:08:12;;;;;;;7.03;4.57;;;3.60;96.80;;;;;;4996646;28;20034;-82
2020/12/31 10:10:37;;;;;;;9.80;4.97;;;3.60;96.40;;;;;;4977729;28;20121;-82
2020/12/31 10:13:03;;;;;;;14.80;5.50;;;3.70;96.80;;;;;;4982095;28;20095;-83
2020/12/31 10:15:29;;;;;;;10.90;5.53;;;3.80;96.40;;;;;;4991777;28;20031;-83
2020/12/31 10:17:54;;;;;;;10.38;5.07;;;3.90;96.60;;;;;;4989515;28;20061;-83
2020/12/31 10:20:20;;;;;;;9.77;5.13;;;4.00;97.10;;;;;;4995070;28;20046;-81
2020/12/31 10:22:45;;;;;;;11.73;4.97;;;3.90;95.50;;;;;;4980179;28;20453;-81
2020/12/31 10:25:11;;;;;;;9.45;4.95;;;4.00;95.30;;;;;;4982550;28;20057;-81
2020/12/31 10:27:37;;;;;;;9.77;4.78;;;4.10;94.70;;;;;;4982082;28;20041;-81
2020/12/31 10:30:04;;;;;;;9.25;5.00;;;4.20;95.00;;;;;;4977598;28;20417;-82
2020/12/31 10:32:30;;;;;;;9.95;5.03;;;4.40;94.50;;;;;;4994228;28;20069;-82
2020/12/31 10:34:55;;;;;;;9.80;5.15;;;4.50;93.80;;;;;;4977813;28;20070;-82
2020/12/31 10:37:21;;;;;;;10.45;4.88;;;4.60;93.30;;;;;;4980026;28;20163;-82
2020/12/31 10:39:46;;;;;;;10.32;4.68;;;4.50;92.20;;;;;;4981220;28;20092;-82
2020/12/31 10:42:12;;;;;;;8.43;4.55;;;4.50;91.70;;;;;;4982681;28;20053;-83
2020/12/31 10:44:37;;;;;;;9.02;4.60;;;4.60;92.60;;;;;;4998206;28;20026;-83
2020/12/31 10:47:03;;;;;;;6.97;3.83;;;4.80;92.10;;;;;;4984860;28;20117;-81
2020/12/31 10:49:29;;;;;;;6.20;3.50;;;4.50;91.40;;;;;;4982742;28;20370;-82
2020/12/31 10:51:54;;;;;;;5.25;2.97;;;4.30;92.00;;;;;;4988222;28;20042;-81
2020/12/31 10:54:20;;;;;;;5.95;3.42;;;4.10;93.60;;;;;;4982981;28;20054;-82
2020/12/31 10:56:47;;;;;;;12.40;4.07;;;3.90;96.90;;;;;;4984981;28;20085;-83
2020/12/31 10:59:13;;;;;;;7.38;4.13;;;3.70;99.00;;;;;;4983185;28;20080;-83
2020/12/31 11:01:39;;;;;;;6.20;3.85;;;3.50;99.90;;;;;;4988183;28;20035;-81
2020/12/31 11:04:04;;;;;;;6.72;3.95;;;3.50;99.90;;;;;;4994759;28;20092;-81
2020/12/31 11:06:30;;;;;;;8.45;3.88;;;3.50;99.90;;;;;;4986198;28;20053;-81
2020/12/31 11:08:56;;;;;;;11.77;4.32;;;3.50;99.90;;;;;;4979912;28;20037;-83
2020/12/31 11:11:30;;;;;;;8.82;4.93;;;3.40;99.90;;;;;;4978304;28;20035;-81
2020/12/31 11:13:56;;;;;;;17.92;5.28;;;3.40;99.90;;;;;;4978105;28;20035;-82
2020/12/31 11:16:22;;;;;;;9.90;4.70;;;3.50;99.90;;;;;;4981137;28;20034;-82
2020/12/31 11:18:48;;;;;;;7.20;4.30;;;3.60;99.90;;;;;;4980728;28;20081;-82
2020/12/31 11:21:15;;;;;;;9.02;4.47;;;3.60;99.90;;;;;;4976683;28;20038;-81
2020/12/31 11:23:41;;;;;;;9.90;5.00;;;3.80;99.90;;;;;;4978275;28;20043;-82
2020/12/31 11:26:17;;;;;;;9.80;4.35;;;4.00;99.90;;;;;;4976237;28;20051;-81
2020/12/31 11:28:44;;;;;;;13.20;5.13;;;4.00;99.90;;;;;;4978420;28;20034;-82
2020/12/31 11:31:12;;;;;;;12.23;4.72;;;4.10;99.90;;;;;;4981962;28;20085;-81
2020/12/31 11:33:38;;;;;;;8.98;4.18;;;4.20;99.90;;;;;;4985006;28;20041;-81
2020/12/31 11:36:05;;;;;;;8.02;4.30;;;4.10;99.90;;;;;;4985415;28;20034;-83
2020/12/31 11:38:31;;;;;;;8.77;4.38;;;4.20;99.90;;;;;;4977540;28;20042;-82
2020/12/31 11:40:57;;;;;;;9.82;4.00;;;4.20;99.90;;;;;;4991844;28;20119;-82
2020/12/31 11:43:22;;;;;;;8.48;4.43;;;4.30;99.90;;;;;;5000181;28;20038;-82
2020/12/31 11:45:48;;;;;;;8.88;4.45;;;4.30;99.90;;;;;;4996776;28;20034;-81
2020/12/31 11:48:13;;;;;;;10.32;4.57;;;4.40;99.90;;;;;;4983054;28;20035;-81
2020/12/31 11:50:39;;;;;;;8.48;4.28;;;4.40;99.90;;;;;;4993899;28;20271;-81
2020/12/31 11:53:05;;;;;;;8.75;4.43;;;4.40;99.90;;;;;;4992983;28;20042;-82
2020/12/31 11:55:30;;;;;;;9.07;3.92;;;4.60;99.90;;;;;;4994391;28;20433;-82
2020/12/31 11:57:56;;;;;;;11.50;4.72;;;4.60;99.90;;;;;;4983280;28;20230;-82
2020/12/31 12:00:22;;;;;;;8.90;4.57;;;4.80;99.90;;;;;;4981029;28;20033;-81
2020/12/31 12:02:47;;;;;;;10.13;4.82;;;4.90;99.90;;;;;;4974132;28;20050;-81
2020/12/31 12:05:13;;;;;;;9.20;4.68;;;5.00;99.90;;;;;;4982214;28;20042;-82
2020/12/31 12:07:38;;;;;;;6.47;3.95;;;5.00;99.90;;;;;;4978063;28;20058;-82
2020/12/31 12:10:04;;;;;;;7.70;4.53;;;5.00;99.90;;;;;;4992798;28;20046;-82
2020/12/31 12:12:30;;;;;;;11.48;5.00;;;4.90;99.90;;;;;;4981212;28;20049;-82
2020/12/31 12:14:56;;;;;;;11.52;4.53;;;4.50;99.90;;;;;;4979984;28;20050;-82
2020/12/31 12:17:21;;;;;;;10.50;4.70;;;4.50;99.90;;;;;;4982841;28;20146;-82
2020/12/31 12:19:47;;;;;;;13.65;5.10;;;4.60;99.90;;;;;;4975721;28;20031;-82
2020/12/31 12:22:12;;;;;;;7.57;4.75;;;4.60;99.90;;;;;;4979156;28;20043;-82
2020/12/31 12:24:38;;;;;;;8.45;4.32;;;4.80;99.90;;;;;;4983118;28;20035;-82
2020/12/31 12:27:05;;;;;;;7.22;4.45;;;4.60;99.90;;;;;;4987493;28;20050;-82
2020/12/31 12:29:30;;;;;;;13.45;4.80;;;4.40;99.90;;;;;;4986627;28;20046;-82
2020/12/31 12:31:56;;;;;;;10.20;4.35;;;4.50;99.90;;;;;;4990487;28;20051;-82
2020/12/31 12:34:21;;;;;;;10.15;5.25;;;4.60;99.90;;;;;;4987950;28;20042;-82
2020/12/31 12:36:49;;;;;;;8.35;4.28;;;4.60;99.90;;;;;;4988988;28;20050;-82
2020/12/31 12:39:15;;;;;;;8.35;4.28;;;4.60;99.90;;;;;;4984654;28;20042;-82
2020/12/31 12:41:40;;;;;;;7.45;3.95;;;4.70;99.90;;;;;;4996201;28;20046;-82
2020/12/31 12:44:06;;;;;;;10.35;5.03;;;4.50;99.90;;;;;;4997308;28;20070;-82
2020/12/31 12:46:31;;;;;;;13.23;4.80;;;4.50;99.90;;;;;;4997263;28;20039;-82
2020/12/31 12:48:57;;;;;;;9.43;4.88;;;4.50;99.90;;;;;;4998707;28;20046;-82
2020/12/31 12:51:22;;;;;;;13.45;4.78;;;4.60;99.90;;;;;;4997877;28;20047;-82
2020/12/31 12:53:48;;;;;;;10.30;4.07;;;4.70;99.90;;;;;;5001780;28;20042;-82
2020/12/31 12:56:14;;;;;;;8.55;4.68;;;4.70;99.90;;;;;;4993966;28;20333;-83
2020/12/31 12:58:40;;;;;;;11.75;3.60;;;4.70;99.90;;;;;;5022530;28;20597;-82